createdAt,value
2023-01-11T00:01:27.213Z,0.60
2023-01-11T00:03:55.689Z,0.47
2023-01-11T00:06:26.519Z,0.50
2023-01-11T00:08:56.125Z,0.50
2023-01-11T00:11:24.091Z,0.52
2023-01-11T00:13:51.954Z,0.60
2023-01-11T00:16:21.159Z,0.60
2023-01-11T00:18:49.044Z,0.50
2023-01-11T00:21:16.866Z,0.57
2023-01-11T00:23:44.719Z,0.40
2023-01-11T00:26:13.852Z,0.50
2023-01-11T00:28:41.821Z,0.50
2023-01-11T00:31:09.636Z,0.43
2023-01-11T00:33:38.921Z,0.50
2023-01-11T00:36:07.254Z,0.50
2023-01-11T00:38:53.796Z,0.60
2023-01-11T00:41:40.988Z,0.50
2023-01-11T00:44:28.645Z,0.50
2023-01-11T00:47:15.214Z,0.50
2023-01-11T00:49:44.944Z,0.50
2023-01-11T00:52:12.852Z,0.63
2023-01-11T00:54:41.994Z,0.63
2023-01-11T00:57:10.202Z,0.50
2023-01-11T00:59:40.532Z,0.77
2023-01-11T01:02:09.728Z,0.80
2023-01-11T01:04:38.344Z,0.55
2023-01-11T01:07:08.313Z,0.70
2023-01-11T01:09:36.164Z,0.80
2023-01-11T01:12:04.216Z,0.80
2023-01-11T01:14:33.112Z,0.80
2023-01-11T01:17:02.686Z,0.95
2023-01-11T01:19:31.558Z,1.23
2023-01-11T01:22:00.485Z,1.20
2023-01-11T01:24:30.902Z,0.95
2023-01-11T01:26:59.751Z,1.10
2023-01-11T01:29:27.517Z,0.90
2023-01-11T01:31:55.458Z,0.80
2023-01-11T01:34:23.262Z,0.80
2023-01-11T01:36:51.052Z,0.80
2023-01-11T01:39:18.869Z,1.08
2023-01-11T01:41:48.313Z,0.82
2023-01-11T01:44:54.107Z,0.73
2023-01-11T01:47:25.242Z,0.70
2023-01-11T01:49:55.922Z,0.80
2023-01-11T01:52:29.286Z,0.70
2023-01-11T01:55:02.058Z,0.70
2023-01-11T01:57:35.076Z,0.50
2023-01-11T02:00:07.764Z,0.60
2023-01-11T02:02:38.162Z,0.60
2023-01-11T02:05:07.776Z,0.50
2023-01-11T02:07:39.081Z,0.70
2023-01-11T02:10:10.266Z,0.77
2023-01-11T02:12:42.878Z,0.70
2023-01-11T02:15:11.908Z,0.68
2023-01-11T02:17:39.852Z,0.55
2023-01-11T02:20:20.724Z,0.47
2023-01-11T02:23:10.630Z,0.40
2023-01-11T02:25:59.327Z,0.70
2023-01-11T02:28:34.636Z,0.57
2023-01-11T02:31:11.924Z,0.50
2023-01-11T02:33:48.211Z,0.50
2023-01-11T02:36:27.480Z,0.60
2023-01-11T02:38:58.870Z,0.60
2023-01-11T02:41:53.777Z,0.50
2023-01-11T02:44:46.542Z,0.47
2023-01-11T02:47:19.960Z,0.52
2023-01-11T02:49:52.829Z,0.40
2023-01-11T02:52:28.346Z,0.57
2023-01-11T02:55:00.000Z,0.50
2023-01-11T02:57:29.637Z,0.70
2023-01-11T03:00:00.398Z,0.52
2023-01-11T03:02:29.233Z,0.73
2023-01-11T03:04:57.025Z,0.50
2023-01-11T03:07:42.530Z,0.60
2023-01-11T03:10:22.232Z,0.60
2023-01-11T03:13:03.892Z,0.60
2023-01-11T03:16:03.283Z,0.90
2023-01-11T03:18:45.249Z,0.70
2023-01-11T03:21:30.147Z,1.00
2023-01-11T03:24:12.042Z,0.82
2023-01-11T03:26:54.931Z,0.90
2023-01-11T03:29:29.541Z,0.63
2023-01-11T03:32:09.114Z,0.80
2023-01-11T03:34:41.689Z,0.80
2023-01-11T03:37:14.808Z,0.70
2023-01-11T03:39:47.187Z,0.60
2023-01-11T03:42:17.963Z,0.90
2023-01-11T03:44:51.447Z,0.80
2023-01-11T03:47:24.919Z,0.70
2023-01-11T03:49:56.032Z,0.60
2023-01-11T03:52:30.002Z,0.57
2023-01-11T03:55:00.239Z,0.60
2023-01-11T03:57:33.094Z,0.68
2023-01-11T04:02:36.422Z,0.50
2023-01-11T04:05:04.712Z,0.70
2023-01-11T04:07:32.760Z,0.73
2023-01-11T04:10:00.614Z,0.70
2023-01-11T04:12:28.725Z,0.90
2023-01-11T04:14:56.594Z,0.95
2023-01-11T04:17:24.792Z,0.80
2023-01-11T04:19:53.979Z,0.80
2023-01-11T04:22:21.752Z,0.90
2023-01-11T04:24:49.667Z,0.95
2023-01-11T04:27:17.555Z,0.90
2023-01-11T04:29:45.349Z,0.80
2023-01-11T04:32:13.159Z,0.80
2023-01-11T04:34:40.940Z,0.80
2023-01-11T04:37:11.914Z,0.80
2023-01-11T04:39:39.907Z,0.80
2023-01-11T04:42:19.841Z,0.80
2023-01-11T04:44:48.814Z,0.82
2023-01-11T04:47:17.183Z,0.95
2023-01-11T04:49:45.251Z,1.20
2023-01-11T04:52:16.418Z,0.80
2023-01-11T04:54:44.748Z,1.00
2023-01-11T04:57:14.823Z,0.80
2023-01-11T04:59:43.159Z,0.88
2023-01-11T05:02:10.966Z,0.85
2023-01-11T05:04:38.750Z,0.98
2023-01-11T05:07:09.356Z,0.80
2023-01-11T05:09:38.500Z,0.77
2023-01-11T05:12:06.416Z,0.68
2023-01-11T05:14:34.209Z,0.73
2023-01-11T05:17:01.955Z,0.80
2023-01-11T05:19:29.839Z,0.80
2023-01-11T05:21:57.763Z,0.65
2023-01-11T05:24:25.627Z,0.70
2023-01-11T05:26:54.856Z,0.68
2023-01-11T05:29:22.725Z,0.80
2023-01-11T05:31:50.602Z,0.50
2023-01-11T05:34:19.313Z,0.63
2023-01-11T05:36:47.281Z,0.60
2023-01-11T05:39:15.915Z,0.55
2023-01-11T05:41:43.681Z,0.47
2023-01-11T05:44:32.000Z,0.47
2023-01-11T05:47:00.241Z,0.50
2023-01-11T05:49:28.055Z,0.45
2023-01-11T05:51:55.996Z,0.50
2023-01-11T05:54:23.791Z,0.45
2023-01-11T05:56:51.657Z,0.40
2023-01-11T05:59:20.855Z,0.40
2023-01-11T06:01:49.953Z,0.50
2023-01-11T06:04:17.764Z,0.50
2023-01-11T06:06:47.111Z,0.47
2023-01-11T06:09:15.042Z,0.45
2023-01-11T06:11:43.391Z,0.50
2023-01-11T06:14:11.184Z,0.50
2023-01-11T06:16:40.416Z,0.43
2023-01-11T06:19:08.219Z,0.35
2023-01-11T06:21:36.017Z,0.38
2023-01-11T06:24:03.827Z,0.40
2023-01-11T06:26:32.281Z,0.30
2023-01-11T06:29:00.261Z,0.45
2023-01-11T06:31:28.093Z,0.30
2023-01-11T06:33:57.235Z,0.40
2023-01-11T06:36:25.056Z,0.50
2023-01-11T06:38:53.574Z,0.40
2023-01-11T06:41:21.324Z,0.40
2023-01-11T06:43:49.082Z,0.70
2023-01-11T06:46:18.866Z,0.70
2023-01-11T06:48:47.378Z,0.50
2023-01-11T06:51:17.255Z,0.52
2023-01-11T06:53:46.447Z,0.60
2023-01-11T06:56:15.881Z,0.50
2023-01-11T06:58:46.760Z,0.47
2023-01-11T07:01:15.558Z,0.55
2023-01-11T07:03:43.780Z,0.40
2023-01-11T07:06:11.620Z,0.60
2023-01-11T07:08:40.759Z,1.20
2023-01-11T07:11:10.023Z,0.60
2023-01-11T07:13:38.174Z,0.63
2023-01-11T07:16:06.291Z,0.68
2023-01-11T07:18:34.156Z,0.50
2023-01-11T07:21:02.409Z,0.35
2023-01-11T07:23:30.198Z,0.30
2023-01-11T07:25:59.541Z,0.35
2023-01-11T07:28:28.456Z,0.40
2023-01-11T07:30:59.218Z,0.52
2023-01-11T07:33:27.468Z,0.40
2023-01-11T07:35:55.656Z,0.40
2023-01-11T07:38:24.028Z,0.40
2023-01-11T07:40:51.854Z,0.30
2023-01-11T07:43:23.089Z,0.40
2023-01-11T07:45:53.615Z,0.20
2023-01-11T07:48:26.368Z,0.50
2023-01-11T07:50:54.965Z,0.40
2023-01-11T07:53:25.582Z,0.90
2023-01-11T07:55:53.663Z,0.40
2023-01-11T07:58:23.102Z,0.22
2023-01-11T08:00:50.927Z,0.20
2023-01-11T08:03:18.892Z,0.28
2023-01-11T08:05:50.850Z,0.30
2023-01-11T08:08:18.686Z,0.17
2023-01-11T08:10:46.461Z,0.50
2023-01-11T08:13:33.040Z,0.65
2023-01-11T08:16:02.345Z,0.40
2023-01-11T08:18:30.167Z,0.63
2023-01-11T08:20:58.216Z,0.70
2023-01-11T08:23:27.174Z,0.63
2023-01-11T08:25:57.938Z,0.50
2023-01-11T08:28:25.835Z,0.50
2023-01-11T08:30:53.767Z,0.80
2023-01-11T08:33:22.909Z,0.65
2023-01-11T08:35:50.871Z,0.70
2023-01-11T08:38:18.641Z,0.75
2023-01-11T08:40:46.420Z,0.93
2023-01-11T08:43:14.214Z,0.90
2023-01-11T08:45:41.977Z,1.48
2023-01-11T08:48:09.767Z,0.90
2023-01-11T08:50:38.930Z,0.88
2023-01-11T08:53:06.711Z,1.00
2023-01-11T08:55:34.540Z,1.20
2023-01-11T08:58:02.400Z,1.20
2023-01-11T09:00:30.314Z,1.00
2023-01-11T09:03:01.207Z,1.13
2023-01-11T09:05:29.187Z,1.20
2023-01-11T09:07:58.843Z,1.27
2023-01-11T09:10:27.258Z,1.40
2023-01-11T09:12:55.301Z,1.55
2023-01-11T09:15:23.708Z,1.90
2023-01-11T09:17:51.911Z,1.95
2023-01-11T09:20:21.090Z,2.15
2023-01-11T09:22:50.705Z,2.40
2023-01-11T09:25:21.515Z,2.90
2023-01-11T09:27:50.760Z,2.78
2023-01-11T09:30:20.267Z,3.08
2023-01-11T09:32:48.561Z,2.88
2023-01-11T09:35:18.008Z,3.30
2023-01-11T09:37:49.930Z,3.47
2023-01-11T09:40:23.179Z,3.47
2023-01-11T09:42:52.760Z,3.75
2023-01-11T09:45:23.372Z,3.15
2023-01-11T09:47:57.105Z,2.30
2023-01-11T09:50:29.415Z,2.22
2023-01-11T09:52:59.986Z,1.98
2023-01-11T09:55:35.114Z,1.92
2023-01-11T09:58:28.324Z,2.08
2023-01-11T10:01:06.982Z,1.63
2023-01-11T10:03:53.137Z,1.77
2023-01-11T10:06:27.010Z,2.00
2023-01-11T10:18:30.186Z,1.92
2023-01-11T10:18:32.896Z,1.92
2023-01-11T10:21:12.807Z,1.63
2023-01-11T10:23:49.634Z,1.73
2023-01-11T10:26:27.340Z,1.67
2023-01-11T10:29:22.028Z,1.90
2023-01-11T10:32:11.063Z,2.00
2023-01-11T10:34:59.943Z,1.92
2023-01-11T10:37:50.014Z,2.00
2023-01-11T10:40:40.148Z,1.98
2023-01-11T10:43:16.841Z,2.25
2023-01-11T10:45:51.339Z,2.38
2023-01-11T10:48:25.357Z,2.28
2023-01-11T10:51:04.537Z,2.50
2023-01-11T10:53:38.220Z,2.30
2023-01-11T10:56:19.654Z,2.33
2023-01-11T10:59:05.071Z,2.60
2023-01-11T11:01:50.189Z,2.40
2023-01-11T11:04:36.114Z,2.55
2023-01-11T11:07:12.355Z,2.53
2023-01-11T11:09:51.335Z,2.13
2023-01-11T11:12:24.013Z,2.38
2023-01-11T11:15:00.274Z,2.25
2023-01-11T11:17:33.057Z,2.35
2023-01-11T11:22:28.887Z,2.22
2023-01-11T11:25:04.978Z,2.50
2023-01-11T11:27:41.912Z,2.70
2023-01-11T11:30:12.973Z,2.40
2023-01-11T11:32:47.696Z,2.30
2023-01-11T11:35:31.550Z,3.17
2023-01-11T11:37:59.602Z,2.60
2023-01-11T11:40:33.413Z,2.53
2023-01-11T11:43:13.234Z,2.85
2023-01-11T11:45:52.895Z,2.60
2023-01-11T11:48:23.349Z,2.63
2023-01-11T11:50:52.563Z,3.58
2023-01-11T11:53:42.938Z,2.47
2023-01-11T11:56:21.998Z,2.80
2023-01-11T11:58:50.728Z,2.58
2023-01-11T12:01:28.561Z,2.25
2023-01-11T12:04:01.448Z,2.10
2023-01-11T12:09:01.306Z,1.98
2023-01-11T12:11:32.941Z,1.80
2023-01-11T12:14:04.813Z,1.92
2023-01-11T12:16:41.582Z,1.85
2023-01-11T12:19:30.425Z,1.95
2023-01-11T12:22:12.571Z,2.00
2023-01-11T12:24:40.487Z,2.05
2023-01-11T12:27:18.744Z,2.30
2023-01-11T12:30:20.326Z,2.38
2023-01-11T12:33:10.557Z,2.50
2023-01-11T12:35:51.224Z,2.30
2023-01-11T12:38:32.000Z,2.47
2023-01-11T12:41:16.531Z,2.00
2023-01-11T12:44:01.272Z,1.98
2023-01-11T12:46:43.777Z,1.70
2023-01-11T12:49:25.064Z,1.98
2023-01-11T12:52:14.137Z,1.50
2023-01-11T12:55:01.803Z,1.95
2023-01-11T12:57:37.081Z,2.15
2023-01-11T13:00:44.305Z,1.65
2023-01-11T13:03:37.355Z,1.58
2023-01-11T13:06:10.988Z,1.80
2023-01-11T13:08:53.898Z,2.17
2023-01-11T13:11:38.223Z,1.73
2023-01-11T13:14:31.811Z,1.73
2023-01-11T13:17:11.699Z,2.00
2023-01-11T13:19:45.570Z,1.58
2023-01-11T13:22:17.132Z,1.67
2023-01-11T13:24:50.432Z,1.80
2023-01-11T13:27:22.403Z,2.10
2023-01-11T13:29:53.666Z,1.70
2023-01-11T13:32:24.720Z,2.38
2023-01-11T13:34:55.642Z,1.40
2023-01-11T13:37:30.642Z,2.17
2023-01-11T13:40:08.092Z,1.90
2023-01-11T13:42:39.621Z,1.67
2023-01-11T13:45:16.683Z,1.70
2023-01-11T13:47:48.650Z,1.70
2023-01-11T13:50:21.617Z,1.50
2023-01-11T13:53:03.476Z,1.45
2023-01-11T13:55:41.766Z,1.85
2023-01-11T13:58:17.006Z,1.55
2023-01-11T14:00:48.785Z,1.52
2023-01-11T14:03:27.868Z,1.50
2023-01-11T14:06:09.301Z,1.73
2023-01-11T14:09:01.565Z,1.50
2023-01-11T14:11:42.093Z,1.48
2023-01-11T14:14:37.280Z,1.80
2023-01-11T14:17:25.763Z,1.50
2023-01-11T14:20:01.073Z,2.03
2023-01-11T14:22:40.257Z,1.40
2023-01-11T14:25:19.657Z,1.83
2023-01-11T14:28:25.461Z,1.38
2023-01-11T14:31:19.749Z,1.67
2023-01-11T14:34:06.336Z,2.10
2023-01-11T14:37:02.495Z,1.65
2023-01-11T14:40:01.856Z,1.50
2023-01-11T14:42:59.202Z,1.65
2023-01-11T14:45:45.760Z,2.20
2023-01-11T14:48:29.957Z,1.42
2023-01-11T14:51:25.920Z,1.73
2023-01-11T14:54:01.865Z,2.10
2023-01-11T14:56:50.585Z,1.90
2023-01-11T14:59:32.873Z,1.50
2023-01-11T15:02:28.876Z,2.08
2023-01-11T15:05:34.797Z,1.50
2023-01-11T15:08:17.005Z,1.60
2023-01-11T15:10:56.447Z,1.48
2023-01-11T15:13:26.546Z,1.70
2023-01-11T15:16:27.221Z,1.67
2023-01-11T15:18:57.330Z,1.40
2023-01-11T15:21:27.381Z,1.60
2023-01-11T15:23:58.136Z,1.58
2023-01-11T15:26:27.791Z,1.60
2023-01-11T15:28:57.364Z,1.80
2023-01-11T15:31:49.925Z,2.20
2023-01-11T15:34:28.274Z,1.63
2023-01-11T15:37:37.014Z,2.08
2023-01-11T15:40:12.507Z,2.20
2023-01-11T15:43:20.979Z,1.75
2023-01-11T15:46:46.006Z,1.90
2023-01-11T15:50:06.127Z,1.90
2023-01-11T15:53:09.564Z,1.60
2023-01-11T15:56:12.805Z,1.58
2023-01-11T15:59:30.331Z,1.80
2023-01-11T16:02:55.489Z,1.70
2023-01-11T16:05:29.267Z,1.40
2023-01-11T16:08:08.523Z,1.60
2023-01-11T16:10:56.528Z,1.70
2023-01-11T16:13:41.867Z,1.50
2023-01-11T16:16:22.055Z,1.80
2023-01-11T16:18:54.510Z,1.67
2023-01-11T16:21:33.473Z,1.85
2023-01-11T16:24:10.937Z,1.80
2023-01-11T16:26:44.328Z,1.80
2023-01-11T16:29:19.451Z,1.75
2023-01-11T16:31:59.638Z,1.40
2023-01-11T16:34:28.960Z,1.90
2023-01-11T16:36:58.433Z,1.52
2023-01-11T16:39:30.037Z,1.98
2023-01-11T16:42:03.242Z,2.40
2023-01-11T16:44:42.078Z,2.13
2023-01-11T16:47:17.004Z,2.22
2023-01-11T16:49:48.973Z,1.80
2023-01-11T16:52:40.247Z,1.80
2023-01-11T16:55:29.669Z,1.60
2023-01-11T16:58:01.140Z,1.40
2023-01-11T17:00:35.910Z,1.60
2023-01-11T17:03:17.894Z,2.10
2023-01-11T17:05:55.124Z,2.05
2023-01-11T17:08:28.321Z,2.03
2023-01-11T17:11:00.135Z,1.95
2023-01-11T17:14:12.756Z,2.05
2023-01-11T17:16:42.845Z,1.80
2023-01-11T17:19:16.266Z,1.92
2023-01-11T17:21:49.715Z,2.30
2023-01-11T17:24:23.905Z,1.95
2023-01-11T17:26:54.925Z,2.25
2023-01-11T17:29:30.162Z,1.90
2023-01-11T17:32:00.624Z,1.80
2023-01-11T17:34:31.947Z,1.50
2023-01-11T17:37:01.412Z,1.48
2023-01-11T17:39:34.280Z,1.40
2023-01-11T17:45:09.418Z,1.20
2023-01-11T17:47:40.179Z,1.35
2023-01-11T17:50:19.927Z,1.52
2023-01-11T17:52:54.848Z,1.23
2023-01-11T17:55:26.589Z,1.30
2023-01-11T17:58:17.406Z,1.52
2023-01-11T18:01:03.146Z,1.35
2023-01-11T18:03:32.013Z,1.30
2023-01-11T18:06:13.678Z,1.60
2023-01-11T18:08:47.889Z,1.85
2023-01-11T18:11:25.284Z,1.65
2023-01-11T18:13:54.227Z,1.20
2023-01-11T18:16:23.625Z,1.20
2023-01-11T18:18:53.377Z,1.80
2023-01-11T18:21:41.292Z,1.50
2023-01-11T18:24:35.739Z,1.70
2023-01-11T18:27:29.250Z,1.50
2023-01-11T18:30:01.216Z,1.40
2023-01-11T18:32:35.717Z,1.33
2023-01-11T18:35:04.110Z,1.70
2023-01-11T18:37:31.923Z,1.52
2023-01-11T18:40:01.364Z,1.67
2023-01-11T18:42:33.934Z,1.58
2023-01-11T18:45:01.753Z,1.52
2023-01-11T18:47:30.459Z,1.88
2023-01-11T18:50:03.743Z,1.75
2023-01-11T18:52:31.860Z,1.98
2023-01-11T18:54:59.719Z,1.60
2023-01-11T18:57:27.599Z,1.92
2023-01-11T18:59:56.970Z,2.00
2023-01-11T19:02:27.829Z,1.77
2023-01-11T19:04:57.339Z,1.70
2023-01-11T19:07:26.954Z,2.25
2023-01-11T19:09:55.920Z,1.75
2023-01-11T19:12:24.776Z,1.75
2023-01-11T19:14:52.685Z,1.45
2023-01-11T19:17:22.104Z,1.42
2023-01-11T19:19:50.013Z,1.70
2023-01-11T19:22:17.902Z,1.85
2023-01-11T19:24:45.777Z,1.98
2023-01-11T19:27:14.045Z,1.90
2023-01-11T19:29:42.254Z,1.95
2023-01-11T19:32:10.400Z,1.77
2023-01-11T19:34:40.659Z,1.83
2023-01-11T19:37:08.676Z,1.65
2023-01-11T19:39:36.870Z,1.90
2023-01-11T19:42:04.904Z,1.70
2023-01-11T19:44:33.825Z,1.80
2023-01-11T19:47:11.291Z,1.70
2023-01-11T19:49:41.532Z,1.90
2023-01-11T19:52:13.427Z,1.42
2023-01-11T19:54:42.789Z,2.30
2023-01-11T19:57:11.433Z,2.03
2023-01-11T19:59:39.474Z,2.45
2023-01-11T20:02:07.967Z,2.42
2023-01-11T20:04:35.887Z,2.15
2023-01-11T20:07:05.401Z,2.38
2023-01-11T20:09:33.482Z,2.00
2023-01-11T20:12:01.392Z,2.17
2023-01-11T20:14:29.324Z,2.25
2023-01-11T20:16:57.377Z,2.33
2023-01-11T20:19:25.313Z,2.45
2023-01-11T20:21:53.244Z,2.25
2023-01-11T20:24:28.102Z,2.30
2023-01-11T20:26:56.634Z,2.50
2023-01-11T20:29:24.618Z,2.45
2023-01-11T20:31:52.654Z,2.30
2023-01-11T20:34:20.848Z,2.00
2023-01-11T20:36:49.108Z,1.77
2023-01-11T20:39:17.585Z,1.90
2023-01-11T20:41:49.928Z,1.95
2023-01-11T20:44:19.931Z,1.60
2023-01-11T20:46:48.680Z,2.50
2023-01-11T20:49:16.979Z,1.95
2023-01-11T20:51:45.760Z,1.92
2023-01-11T20:54:14.399Z,1.73
2023-01-11T20:56:42.577Z,1.55
2023-01-11T20:59:13.625Z,1.40
2023-01-11T21:01:41.645Z,1.73
2023-01-11T21:04:11.298Z,1.50
2023-01-11T21:06:41.216Z,1.65
2023-01-11T21:09:10.565Z,1.90
2023-01-11T21:11:41.171Z,1.60
2023-01-11T21:14:11.994Z,1.60
2023-01-11T21:16:44.308Z,1.38
2023-01-11T21:19:13.588Z,2.17
2023-01-11T21:21:42.021Z,1.42
2023-01-11T21:24:13.079Z,1.50
2023-01-11T21:26:42.280Z,1.80
2023-01-11T21:29:11.499Z,1.63
2023-01-11T21:31:40.629Z,1.58
2023-01-11T21:34:11.618Z,1.77
2023-01-11T21:36:40.092Z,1.90
2023-01-11T21:39:09.298Z,1.90
2023-01-11T21:41:54.785Z,1.65
2023-01-11T21:44:26.441Z,1.73
2023-01-11T21:46:55.836Z,1.70
2023-01-11T21:49:25.275Z,1.83
2023-01-11T21:51:56.035Z,1.73
2023-01-11T21:54:23.928Z,1.88
2023-01-11T21:56:52.641Z,1.70
2023-01-11T21:59:21.449Z,1.70
2023-01-11T22:01:49.800Z,1.92
2023-01-11T22:04:20.121Z,1.70
2023-01-11T22:06:55.134Z,2.03
2023-01-11T22:09:24.657Z,1.40
2023-01-11T22:11:52.664Z,1.70
2023-01-11T22:14:20.508Z,1.67
2023-01-11T22:16:48.636Z,1.65
2023-01-11T22:19:17.279Z,1.35
2023-01-11T22:21:45.481Z,1.35
2023-01-11T22:24:15.448Z,1.80
2023-01-11T22:26:43.236Z,1.40
2023-01-11T22:29:15.038Z,1.40
2023-01-11T22:31:46.588Z,1.35
2023-01-11T22:34:15.359Z,1.70
2023-01-11T22:36:43.832Z,1.45
2023-01-11T22:39:12.776Z,1.33
2023-01-11T22:41:42.128Z,1.40
2023-01-11T22:44:11.111Z,1.55
2023-01-11T22:46:39.178Z,1.50
2023-01-11T22:49:07.818Z,1.40
2023-01-11T22:51:36.060Z,1.70
2023-01-11T22:54:05.132Z,1.33
2023-01-11T22:56:33.813Z,1.77
2023-01-11T22:59:03.232Z,1.60
2023-01-11T23:01:32.852Z,1.67
2023-01-11T23:04:01.722Z,1.50
2023-01-11T23:06:31.481Z,1.73
2023-01-11T23:08:59.896Z,1.50
2023-01-11T23:12:01.369Z,1.45
2023-01-11T23:14:32.930Z,1.38
2023-01-11T23:17:02.110Z,1.45
2023-01-11T23:19:31.968Z,1.20
2023-01-11T23:22:00.192Z,1.42
2023-01-11T23:24:27.985Z,1.55
2023-01-11T23:26:55.997Z,1.50
2023-01-11T23:29:24.256Z,1.30
2023-01-11T23:31:53.512Z,1.30
2023-01-11T23:34:21.330Z,1.48
2023-01-11T23:36:49.213Z,1.92
2023-01-11T23:39:18.811Z,1.48
2023-01-11T23:42:04.262Z,1.48
2023-01-11T23:44:32.114Z,1.40
2023-01-11T23:47:19.095Z,1.45
2023-01-11T23:49:46.935Z,1.45
2023-01-11T23:52:14.704Z,1.50
2023-01-11T23:54:43.378Z,1.40
2023-01-11T23:57:12.336Z,1.30
2023-01-11T23:59:41.617Z,1.52
